sensor_id;sensor_type;location;lat;lon;timestamp;P1;durP1;ratioP1;P2;durP2;ratioP2
10134;SDS011;5107;48.850;8.924;2022-08-05T00:00:18;2.72;;;2.53;;
10134;SDS011;5107;48.850;8.924;2022-08-05T00:02:46;2.50;;;2.30;;
10134;SDS011;5107;48.850;8.924;2022-08-05T00:05:13;2.67;;;2.47;;
10134;SDS011;5107;48.850;8.924;2022-08-05T00:07:41;2.60;;;2.40;;
10134;SDS011;5107;48.850;8.924;2022-08-05T00:10:08;2.40;;;2.20;;
10134;SDS011;5107;48.850;8.924;2022-08-05T00:12:35;2.58;;;2.38;;
10134;SDS011;5107;48.850;8.924;2022-08-05T00:15:04;2.35;;;2.13;;
10134;SDS011;5107;48.850;8.924;2022-08-05T00:17:33;2.65;;;2.45;;
10134;SDS011;5107;48.850;8.924;2022-08-05T00:20:00;2.45;;;2.25;;
10134;SDS011;5107;48.850;8.924;2022-08-05T00:22:27;2.60;;;2.40;;
10134;SDS011;5107;48.850;8.924;2022-08-05T00:24:55;2.60;;;2.40;;
10134;SDS011;5107;48.850;8.924;2022-08-05T00:27:22;2.60;;;2.40;;
10134;SDS011;5107;48.850;8.924;2022-08-05T00:29:49;2.92;;;2.20;;
10134;SDS011;5107;48.850;8.924;2022-08-05T00:32:17;2.65;;;2.45;;
10134;SDS011;5107;48.850;8.924;2022-08-05T00:34:44;4.00;;;2.35;;
10134;SDS011;5107;48.850;8.924;2022-08-05T00:37:11;2.75;;;2.55;;
10134;SDS011;5107;48.850;8.924;2022-08-05T00:39:39;3.60;;;2.42;;
10134;SDS011;5107;48.850;8.924;2022-08-05T00:42:07;4.63;;;2.60;;
10134;SDS011;5107;48.850;8.924;2022-08-05T00:44:34;4.70;;;2.97;;
10134;SDS011;5107;48.850;8.924;2022-08-05T00:47:01;3.17;;;2.97;;
10134;SDS011;5107;48.850;8.924;2022-08-05T00:49:30;7.15;;;2.90;;
10134;SDS011;5107;48.850;8.924;2022-08-05T00:51:58;4.25;;;2.67;;
10134;SDS011;5107;48.850;8.924;2022-08-05T00:54:25;4.03;;;2.88;;
10134;SDS011;5107;48.850;8.924;2022-08-05T00:56:52;3.80;;;2.90;;
10134;SDS011;5107;48.850;8.924;2022-08-05T00:59:19;4.78;;;2.80;;
10134;SDS011;5107;48.850;8.924;2022-08-05T01:01:46;3.55;;;2.60;;
10134;SDS011;5107;48.850;8.924;2022-08-05T01:04:13;5.63;;;2.90;;
10134;SDS011;5107;48.850;8.924;2022-08-05T01:06:41;3.00;;;2.75;;
10134;SDS011;5107;48.850;8.924;2022-08-05T01:09:08;3.95;;;3.05;;
10134;SDS011;5107;48.850;8.924;2022-08-05T01:11:35;3.65;;;2.65;;
10134;SDS011;5107;48.850;8.924;2022-08-05T01:14:05;3.15;;;2.50;;
10134;SDS011;5107;48.850;8.924;2022-08-05T01:16:42;3.08;;;2.72;;
10134;SDS011;5107;48.850;8.924;2022-08-05T01:19:21;4.63;;;2.85;;
10134;SDS011;5107;48.850;8.924;2022-08-05T01:22:10;3.80;;;3.28;;
10134;SDS011;5107;48.850;8.924;2022-08-05T01:25:02;4.68;;;2.70;;
10134;SDS011;5107;48.850;8.924;2022-08-05T01:27:59;3.38;;;2.92;;
10134;SDS011;5107;48.850;8.924;2022-08-05T01:30:50;2.70;;;2.50;;
10134;SDS011;5107;48.850;8.924;2022-08-05T01:33:23;3.13;;;2.75;;
10134;SDS011;5107;48.850;8.924;2022-08-05T01:35:56;4.15;;;2.60;;
10134;SDS011;5107;48.850;8.924;2022-08-05T01:38:26;4.05;;;2.75;;
10134;SDS011;5107;48.850;8.924;2022-08-05T01:40:56;3.20;;;2.63;;
10134;SDS011;5107;48.850;8.924;2022-08-05T01:43:27;5.78;;;2.83;;
10134;SDS011;5107;48.850;8.924;2022-08-05T01:45:55;3.20;;;2.90;;
10134;SDS011;5107;48.850;8.924;2022-08-05T01:48:24;3.58;;;3.20;;
10134;SDS011;5107;48.850;8.924;2022-08-05T01:50:52;5.88;;;3.33;;
10134;SDS011;5107;48.850;8.924;2022-08-05T01:53:22;3.28;;;2.75;;
10134;SDS011;5107;48.850;8.924;2022-08-05T01:55:50;5.05;;;3.10;;
10134;SDS011;5107;48.850;8.924;2022-08-05T01:58:21;3.75;;;3.17;;
10134;SDS011;5107;48.850;8.924;2022-08-05T02:00:52;4.30;;;2.80;;
10134;SDS011;5107;48.850;8.924;2022-08-05T02:03:22;5.70;;;3.25;;
10134;SDS011;5107;48.850;8.924;2022-08-05T02:05:54;4.10;;;3.30;;
10134;SDS011;5107;48.850;8.924;2022-08-05T02:08:21;3.33;;;2.83;;
10134;SDS011;5107;48.850;8.924;2022-08-05T02:10:50;4.57;;;3.20;;
10134;SDS011;5107;48.850;8.924;2022-08-05T02:13:26;5.35;;;3.13;;
10134;SDS011;5107;48.850;8.924;2022-08-05T02:16:01;4.97;;;3.33;;
10134;SDS011;5107;48.850;8.924;2022-08-05T02:18:38;3.70;;;3.40;;
10134;SDS011;5107;48.850;8.924;2022-08-05T02:21:11;6.15;;;3.35;;
10134;SDS011;5107;48.850;8.924;2022-08-05T02:23:43;3.40;;;3.10;;
10134;SDS011;5107;48.850;8.924;2022-08-05T02:26:22;6.22;;;3.60;;
10134;SDS011;5107;48.850;8.924;2022-08-05T02:28:53;4.15;;;3.53;;
10134;SDS011;5107;48.850;8.924;2022-08-05T02:31:25;5.22;;;3.40;;
10134;SDS011;5107;48.850;8.924;2022-08-05T02:33:56;5.47;;;3.58;;
10134;SDS011;5107;48.850;8.924;2022-08-05T02:36:27;5.43;;;3.22;;
10134;SDS011;5107;48.850;8.924;2022-08-05T02:38:57;4.63;;;3.55;;
10134;SDS011;5107;48.850;8.924;2022-08-05T02:41:27;5.95;;;3.70;;
10134;SDS011;5107;48.850;8.924;2022-08-05T02:43:57;5.18;;;3.60;;
10134;SDS011;5107;48.850;8.924;2022-08-05T02:46:28;5.32;;;3.20;;
10134;SDS011;5107;48.850;8.924;2022-08-05T02:48:56;3.92;;;3.50;;
10134;SDS011;5107;48.850;8.924;2022-08-05T02:51:24;3.50;;;3.20;;
10134;SDS011;5107;48.850;8.924;2022-08-05T02:53:52;4.78;;;3.70;;
10134;SDS011;5107;48.850;8.924;2022-08-05T02:56:20;5.53;;;3.58;;
10134;SDS011;5107;48.850;8.924;2022-08-05T02:58:48;3.70;;;3.28;;
10134;SDS011;5107;48.850;8.924;2022-08-05T03:01:17;5.00;;;3.47;;
10134;SDS011;5107;48.850;8.924;2022-08-05T03:03:52;4.80;;;3.60;;
10134;SDS011;5107;48.850;8.924;2022-08-05T03:06:26;4.03;;;3.67;;
10134;SDS011;5107;48.850;8.924;2022-08-05T03:08:54;4.43;;;3.63;;
10134;SDS011;5107;48.850;8.924;2022-08-05T03:11:22;6.32;;;3.92;;
10134;SDS011;5107;48.850;8.924;2022-08-05T03:13:51;3.90;;;3.53;;
10134;SDS011;5107;48.850;8.924;2022-08-05T03:16:19;6.95;;;3.70;;
10134;SDS011;5107;48.850;8.924;2022-08-05T03:18:47;4.47;;;3.95;;
10134;SDS011;5107;48.850;8.924;2022-08-05T03:21:16;4.65;;;3.78;;
10134;SDS011;5107;48.850;8.924;2022-08-05T03:23:43;6.60;;;4.03;;
10134;SDS011;5107;48.850;8.924;2022-08-05T03:26:11;4.80;;;3.55;;
10134;SDS011;5107;48.850;8.924;2022-08-05T03:28:39;5.35;;;3.53;;
10134;SDS011;5107;48.850;8.924;2022-08-05T03:31:06;4.45;;;3.70;;
10134;SDS011;5107;48.850;8.924;2022-08-05T03:33:34;3.85;;;3.45;;
10134;SDS011;5107;48.850;8.924;2022-08-05T03:36:02;5.35;;;3.55;;
10134;SDS011;5107;48.850;8.924;2022-08-05T03:38:31;4.32;;;3.92;;
10134;SDS011;5107;48.850;8.924;2022-08-05T03:40:59;4.47;;;3.85;;
10134;SDS011;5107;48.850;8.924;2022-08-05T03:43:26;4.38;;;3.80;;
10134;SDS011;5107;48.850;8.924;2022-08-05T03:45:53;4.95;;;3.80;;
10134;SDS011;5107;48.850;8.924;2022-08-05T03:48:20;4.28;;;3.88;;
10134;SDS011;5107;48.850;8.924;2022-08-05T03:50:49;4.30;;;3.60;;
10134;SDS011;5107;48.850;8.924;2022-08-05T03:53:20;6.88;;;3.60;;
10134;SDS011;5107;48.850;8.924;2022-08-05T03:55:59;5.18;;;3.67;;
10134;SDS011;5107;48.850;8.924;2022-08-05T03:58:33;4.25;;;3.88;;
10134;SDS011;5107;48.850;8.924;2022-08-05T04:01:03;4.82;;;3.67;;
10134;SDS011;5107;48.850;8.924;2022-08-05T04:03:34;4.72;;;3.58;;
10134;SDS011;5107;48.850;8.924;2022-08-05T04:06:04;5.50;;;4.20;;
10134;SDS011;5107;48.850;8.924;2022-08-05T04:08:34;5.35;;;4.00;;
10134;SDS011;5107;48.850;8.924;2022-08-05T04:11:04;7.22;;;4.72;;
10134;SDS011;5107;48.850;8.924;2022-08-05T04:13:32;5.95;;;4.07;;
10134;SDS011;5107;48.850;8.924;2022-08-05T04:16:00;4.55;;;4.07;;
10134;SDS011;5107;48.850;8.924;2022-08-05T04:18:27;6.95;;;4.03;;
10134;SDS011;5107;48.850;8.924;2022-08-05T04:20:54;5.63;;;3.95;;
10134;SDS011;5107;48.850;8.924;2022-08-05T04:23:24;5.68;;;4.28;;
10134;SDS011;5107;48.850;8.924;2022-08-05T04:25:53;5.22;;;4.47;;
10134;SDS011;5107;48.850;8.924;2022-08-05T04:28:21;6.15;;;5.07;;
10134;SDS011;5107;48.850;8.924;2022-08-05T04:30:49;8.15;;;4.38;;
10134;SDS011;5107;48.850;8.924;2022-08-05T04:33:16;8.27;;;4.45;;
10134;SDS011;5107;48.850;8.924;2022-08-05T04:35:43;5.13;;;4.35;;
10134;SDS011;5107;48.850;8.924;2022-08-05T04:38:10;4.97;;;4.47;;
10134;SDS011;5107;48.850;8.924;2022-08-05T04:40:38;5.93;;;4.15;;
10134;SDS011;5107;48.850;8.924;2022-08-05T04:43:06;7.35;;;4.35;;
10134;SDS011;5107;48.850;8.924;2022-08-05T04:45:34;8.27;;;4.00;;
10134;SDS011;5107;48.850;8.924;2022-08-05T04:48:03;5.50;;;4.30;;
10134;SDS011;5107;48.850;8.924;2022-08-05T04:50:31;5.32;;;3.95;;
10134;SDS011;5107;48.850;8.924;2022-08-05T04:53:05;6.45;;;4.40;;
10134;SDS011;5107;48.850;8.924;2022-08-05T04:55:34;6.47;;;4.07;;
10134;SDS011;5107;48.850;8.924;2022-08-05T04:58:02;6.57;;;3.95;;
10134;SDS011;5107;48.850;8.924;2022-08-05T05:00:29;4.68;;;4.20;;
10134;SDS011;5107;48.850;8.924;2022-08-05T05:02:58;5.43;;;4.03;;
10134;SDS011;5107;48.850;8.924;2022-08-05T05:05:26;8.55;;;4.47;;
10134;SDS011;5107;48.850;8.924;2022-08-05T05:07:55;8.07;;;4.40;;
10134;SDS011;5107;48.850;8.924;2022-08-05T05:10:25;4.85;;;4.32;;
10134;SDS011;5107;48.850;8.924;2022-08-05T05:12:52;5.10;;;4.43;;
10134;SDS011;5107;48.850;8.924;2022-08-05T05:15:19;5.05;;;4.50;;
10134;SDS011;5107;48.850;8.924;2022-08-05T05:17:46;5.75;;;4.25;;
10134;SDS011;5107;48.850;8.924;2022-08-05T05:20:15;5.18;;;4.35;;
10134;SDS011;5107;48.850;8.924;2022-08-05T05:22:42;5.07;;;4.50;;
10134;SDS011;5107;48.850;8.924;2022-08-05T05:25:09;5.43;;;4.20;;
10134;SDS011;5107;48.850;8.924;2022-08-05T05:27:37;5.15;;;4.65;;
10134;SDS011;5107;48.850;8.924;2022-08-05T05:30:05;6.22;;;4.60;;
10134;SDS011;5107;48.850;8.924;2022-08-05T05:32:33;6.63;;;4.70;;
10134;SDS011;5107;48.850;8.924;2022-08-05T05:35:00;6.97;;;4.40;;
10134;SDS011;5107;48.850;8.924;2022-08-05T05:37:29;7.15;;;4.28;;
10134;SDS011;5107;48.850;8.924;2022-08-05T05:39:56;6.60;;;4.68;;
10134;SDS011;5107;48.850;8.924;2022-08-05T05:42:23;6.07;;;4.40;;
10134;SDS011;5107;48.850;8.924;2022-08-05T05:44:50;5.00;;;4.40;;
10134;SDS011;5107;48.850;8.924;2022-08-05T05:47:17;8.50;;;4.90;;
10134;SDS011;5107;48.850;8.924;2022-08-05T05:49:44;5.13;;;4.63;;
10134;SDS011;5107;48.850;8.924;2022-08-05T05:52:11;4.68;;;4.25;;
10134;SDS011;5107;48.850;8.924;2022-08-05T05:54:40;4.55;;;4.15;;
10134;SDS011;5107;48.850;8.924;2022-08-05T05:57:07;5.88;;;4.20;;
10134;SDS011;5107;48.850;8.924;2022-08-05T05:59:34;5.63;;;4.28;;
10134;SDS011;5107;48.850;8.924;2022-08-05T06:02:01;6.45;;;3.85;;
10134;SDS011;5107;48.850;8.924;2022-08-05T06:04:28;4.68;;;4.00;;
10134;SDS011;5107;48.850;8.924;2022-08-05T06:06:56;5.13;;;3.80;;
10134;SDS011;5107;48.850;8.924;2022-08-05T06:09:23;5.15;;;3.70;;
10134;SDS011;5107;48.850;8.924;2022-08-05T06:11:51;5.55;;;3.40;;
10134;SDS011;5107;48.850;8.924;2022-08-05T06:14:19;3.90;;;3.50;;
10134;SDS011;5107;48.850;8.924;2022-08-05T06:16:46;3.80;;;2.95;;
10134;SDS011;5107;48.850;8.924;2022-08-05T06:19:13;3.28;;;2.97;;
10134;SDS011;5107;48.850;8.924;2022-08-05T06:21:41;3.03;;;2.83;;
10134;SDS011;5107;48.850;8.924;2022-08-05T06:24:09;3.78;;;2.88;;
10134;SDS011;5107;48.850;8.924;2022-08-05T06:26:36;3.95;;;3.03;;
10134;SDS011;5107;48.850;8.924;2022-08-05T06:29:07;3.42;;;2.60;;
10134;SDS011;5107;48.850;8.924;2022-08-05T06:31:35;3.15;;;2.72;;
10134;SDS011;5107;48.850;8.924;2022-08-05T06:34:03;5.22;;;3.03;;
10134;SDS011;5107;48.850;8.924;2022-08-05T06:36:30;2.35;;;2.25;;
10134;SDS011;5107;48.850;8.924;2022-08-05T06:38:57;2.15;;;2.05;;
10134;SDS011;5107;48.850;8.924;2022-08-05T06:41:24;2.80;;;2.60;;
10134;SDS011;5107;48.850;8.924;2022-08-05T06:43:52;3.13;;;2.30;;
10134;SDS011;5107;48.850;8.924;2022-08-05T06:46:20;3.30;;;2.10;;
10134;SDS011;5107;48.850;8.924;2022-08-05T06:48:47;2.30;;;2.10;;
10134;SDS011;5107;48.850;8.924;2022-08-05T06:51:15;3.67;;;2.78;;
10134;SDS011;5107;48.850;8.924;2022-08-05T06:53:42;2.75;;;2.55;;
10134;SDS011;5107;48.850;8.924;2022-08-05T06:56:09;3.67;;;2.42;;
10134;SDS011;5107;48.850;8.924;2022-08-05T06:58:36;3.65;;;2.60;;
10134;SDS011;5107;48.850;8.924;2022-08-05T07:01:04;2.72;;;2.30;;
10134;SDS011;5107;48.850;8.924;2022-08-05T07:03:33;3.65;;;2.50;;
10134;SDS011;5107;48.850;8.924;2022-08-05T07:06:01;2.42;;;2.22;;
10134;SDS011;5107;48.850;8.924;2022-08-05T07:08:29;2.50;;;2.30;;
10134;SDS011;5107;48.850;8.924;2022-08-05T07:10:56;2.67;;;2.45;;
10134;SDS011;5107;48.850;8.924;2022-08-05T07:13:23;2.72;;;2.53;;
10134;SDS011;5107;48.850;8.924;2022-08-05T07:16:10;2.60;;;2.40;;
10134;SDS011;5107;48.850;8.924;2022-08-05T07:19:04;2.50;;;2.30;;
10134;SDS011;5107;48.850;8.924;2022-08-05T07:21:31;2.65;;;2.45;;
10134;SDS011;5107;48.850;8.924;2022-08-05T07:23:59;2.72;;;2.25;;
10134;SDS011;5107;48.850;8.924;2022-08-05T07:26:26;2.40;;;2.20;;
10134;SDS011;5107;48.850;8.924;2022-08-05T07:28:53;2.88;;;2.60;;
10134;SDS011;5107;48.850;8.924;2022-08-05T07:31:20;2.55;;;2.33;;
10134;SDS011;5107;48.850;8.924;2022-08-05T07:33:47;2.95;;;2.30;;
10134;SDS011;5107;48.850;8.924;2022-08-05T07:36:16;2.63;;;2.28;;
10134;SDS011;5107;48.850;8.924;2022-08-05T07:38:43;2.50;;;2.30;;
10134;SDS011;5107;48.850;8.924;2022-08-05T07:41:13;2.72;;;2.53;;
10134;SDS011;5107;48.850;8.924;2022-08-05T07:43:43;2.83;;;2.60;;
10134;SDS011;5107;48.850;8.924;2022-08-05T07:46:11;2.67;;;2.35;;
10134;SDS011;5107;48.850;8.924;2022-08-05T07:48:39;2.80;;;2.50;;
10134;SDS011;5107;48.850;8.924;2022-08-05T07:51:07;3.33;;;2.28;;
10134;SDS011;5107;48.850;8.924;2022-08-05T07:53:35;2.38;;;2.20;;
10134;SDS011;5107;48.850;8.924;2022-08-05T07:56:02;2.45;;;2.28;;
10134;SDS011;5107;48.850;8.924;2022-08-05T07:58:30;2.65;;;2.45;;
10134;SDS011;5107;48.850;8.924;2022-08-05T08:00:57;2.58;;;2.20;;
10134;SDS011;5107;48.850;8.924;2022-08-05T08:03:25;3.47;;;2.40;;
10134;SDS011;5107;48.850;8.924;2022-08-05T08:05:52;2.47;;;2.28;;
10134;SDS011;5107;48.850;8.924;2022-08-05T08:08:19;2.30;;;2.10;;
10134;SDS011;5107;48.850;8.924;2022-08-05T08:10:49;2.47;;;2.28;;
10134;SDS011;5107;48.850;8.924;2022-08-05T08:13:16;2.45;;;2.28;;
10134;SDS011;5107;48.850;8.924;2022-08-05T08:15:43;2.35;;;2.17;;
10134;SDS011;5107;48.850;8.924;2022-08-05T08:18:10;2.60;;;2.33;;
10134;SDS011;5107;48.850;8.924;2022-08-05T08:20:37;2.50;;;2.30;;
10134;SDS011;5107;48.850;8.924;2022-08-05T08:23:04;3.22;;;2.35;;
10134;SDS011;5107;48.850;8.924;2022-08-05T08:25:32;2.28;;;2.17;;
10134;SDS011;5107;48.850;8.924;2022-08-05T08:28:01;2.55;;;2.35;;
10134;SDS011;5107;48.850;8.924;2022-08-05T08:30:28;2.40;;;2.30;;
10134;SDS011;5107;48.850;8.924;2022-08-05T08:32:56;3.03;;;2.60;;
10134;SDS011;5107;48.850;8.924;2022-08-05T08:35:23;2.97;;;2.40;;
10134;SDS011;5107;48.850;8.924;2022-08-05T08:37:50;2.55;;;2.35;;
10134;SDS011;5107;48.850;8.924;2022-08-05T08:40:18;2.33;;;2.03;;
10134;SDS011;5107;48.850;8.924;2022-08-05T08:42:46;2.50;;;2.30;;
10134;SDS011;5107;48.850;8.924;2022-08-05T08:45:17;2.40;;;2.20;;
10134;SDS011;5107;48.850;8.924;2022-08-05T08:47:46;2.13;;;2.00;;
10134;SDS011;5107;48.850;8.924;2022-08-05T08:50:17;2.60;;;2.40;;
10134;SDS011;5107;48.850;8.924;2022-08-05T08:52:48;2.75;;;2.10;;
10134;SDS011;5107;48.850;8.924;2022-08-05T08:55:18;2.47;;;2.28;;
10134;SDS011;5107;48.850;8.924;2022-08-05T08:57:46;2.50;;;2.30;;
10134;SDS011;5107;48.850;8.924;2022-08-05T09:00:13;2.42;;;2.22;;
10134;SDS011;5107;48.850;8.924;2022-08-05T09:02:42;2.60;;;2.40;;
10134;SDS011;5107;48.850;8.924;2022-08-05T09:05:10;2.83;;;2.30;;
10134;SDS011;5107;48.850;8.924;2022-08-05T09:07:38;2.55;;;2.35;;
10134;SDS011;5107;48.850;8.924;2022-08-05T09:10:06;2.60;;;2.05;;
10134;SDS011;5107;48.850;8.924;2022-08-05T09:12:33;2.58;;;2.38;;
10134;SDS011;5107;48.850;8.924;2022-08-05T09:15:01;2.65;;;2.28;;
10134;SDS011;5107;48.850;8.924;2022-08-05T09:17:29;3.35;;;2.20;;
10134;SDS011;5107;48.850;8.924;2022-08-05T09:19:58;2.47;;;2.28;;
10134;SDS011;5107;48.850;8.924;2022-08-05T09:22:25;2.20;;;2.10;;
10134;SDS011;5107;48.850;8.924;2022-08-05T09:24:56;2.15;;;2.00;;
10134;SDS011;5107;48.850;8.924;2022-08-05T09:27:30;2.60;;;2.40;;
10134;SDS011;5107;48.850;8.924;2022-08-05T09:29:59;2.33;;;2.22;;
10134;SDS011;5107;48.850;8.924;2022-08-05T09:32:33;2.88;;;2.15;;
10134;SDS011;5107;48.850;8.924;2022-08-05T09:35:10;2.50;;;2.30;;
10134;SDS011;5107;48.850;8.924;2022-08-05T09:37:47;2.30;;;2.10;;
10134;SDS011;5107;48.850;8.924;2022-08-05T09:40:28;2.13;;;2.03;;
10134;SDS011;5107;48.850;8.924;2022-08-05T09:42:58;2.25;;;2.13;;
10134;SDS011;5107;48.850;8.924;2022-08-05T09:45:35;2.42;;;2.22;;
10134;SDS011;5107;48.850;8.924;2022-08-05T09:48:17;2.45;;;2.20;;
10134;SDS011;5107;48.850;8.924;2022-08-05T09:50:50;3.10;;;2.10;;
10134;SDS011;5107;48.850;8.924;2022-08-05T09:53:20;2.83;;;2.30;;
10134;SDS011;5107;48.850;8.924;2022-08-05T09:55:53;2.40;;;2.20;;
10134;SDS011;5107;48.850;8.924;2022-08-05T09:58:22;3.20;;;2.40;;
10134;SDS011;5107;48.850;8.924;2022-08-05T10:00:53;2.90;;;2.42;;
10134;SDS011;5107;48.850;8.924;2022-08-05T10:03:24;2.80;;;2.42;;
10134;SDS011;5107;48.850;8.924;2022-08-05T10:06:03;5.03;;;4.03;;
10134;SDS011;5107;48.850;8.924;2022-08-05T10:08:34;4.30;;;2.53;;
10134;SDS011;5107;48.850;8.924;2022-08-05T10:11:03;2.78;;;2.58;;
10134;SDS011;5107;48.850;8.924;2022-08-05T10:13:39;2.50;;;2.30;;
10134;SDS011;5107;48.850;8.924;2022-08-05T10:18:56;2.28;;;2.08;;
10134;SDS011;5107;48.850;8.924;2022-08-05T10:21:25;4.13;;;2.30;;
10134;SDS011;5107;48.850;8.924;2022-08-05T10:23:53;2.50;;;2.10;;
10134;SDS011;5107;48.850;8.924;2022-08-05T10:26:20;2.30;;;2.10;;
10134;SDS011;5107;48.850;8.924;2022-08-05T10:28:48;3.20;;;2.22;;
10134;SDS011;5107;48.850;8.924;2022-08-05T10:31:16;2.47;;;2.28;;
10134;SDS011;5107;48.850;8.924;2022-08-05T10:33:43;2.75;;;2.17;;
10134;SDS011;5107;48.850;8.924;2022-08-05T10:36:11;2.33;;;2.22;;
10134;SDS011;5107;48.850;8.924;2022-08-05T10:38:40;2.45;;;2.25;;
10134;SDS011;5107;48.850;8.924;2022-08-05T10:41:16;3.60;;;2.25;;
10134;SDS011;5107;48.850;8.924;2022-08-05T10:43:53;2.13;;;2.03;;
10134;SDS011;5107;48.850;8.924;2022-08-05T10:46:41;2.58;;;2.38;;
10134;SDS011;5107;48.850;8.924;2022-08-05T10:49:10;2.65;;;2.10;;
10134;SDS011;5107;48.850;8.924;2022-08-05T10:51:41;2.60;;;2.40;;
10134;SDS011;5107;48.850;8.924;2022-08-05T10:54:11;2.50;;;2.30;;
10134;SDS011;5107;48.850;8.924;2022-08-05T10:56:43;2.42;;;2.22;;
10134;SDS011;5107;48.850;8.924;2022-08-05T10:59:16;2.45;;;2.25;;
10134;SDS011;5107;48.850;8.924;2022-08-05T11:01:44;2.22;;;2.13;;
10134;SDS011;5107;48.850;8.924;2022-08-05T11:04:12;2.13;;;2.00;;
10134;SDS011;5107;48.850;8.924;2022-08-05T11:09:38;2.50;;;2.30;;
10134;SDS011;5107;48.850;8.924;2022-08-05T11:15:15;2.50;;;2.30;;
10134;SDS011;5107;48.850;8.924;2022-08-05T11:17:45;2.75;;;2.47;;
10134;SDS011;5107;48.850;8.924;2022-08-05T11:20:33;2.33;;;2.22;;
10134;SDS011;5107;48.850;8.924;2022-08-05T11:26:03;2.50;;;2.30;;
10134;SDS011;5107;48.850;8.924;2022-08-05T11:28:36;2.38;;;2.22;;
10134;SDS011;5107;48.850;8.924;2022-08-05T11:31:24;2.45;;;2.25;;
10134;SDS011;5107;48.850;8.924;2022-08-05T11:33:59;2.80;;;2.60;;
10134;SDS011;5107;48.850;8.924;2022-08-05T11:36:40;2.50;;;2.30;;
10134;SDS011;5107;48.850;8.924;2022-08-05T11:39:11;2.40;;;2.20;;
10134;SDS011;5107;48.850;8.924;2022-08-05T11:41:42;2.85;;;2.65;;
10134;SDS011;5107;48.850;8.924;2022-08-05T11:44:18;2.90;;;2.42;;
10134;SDS011;5107;48.850;8.924;2022-08-05T11:46:47;2.92;;;2.58;;
10134;SDS011;5107;48.850;8.924;2022-08-05T11:49:16;2.58;;;2.38;;
10134;SDS011;5107;48.850;8.924;2022-08-05T11:51:46;2.35;;;2.25;;
10134;SDS011;5107;48.850;8.924;2022-08-05T11:54:19;2.50;;;2.30;;
10134;SDS011;5107;48.850;8.924;2022-08-05T11:56:53;2.53;;;2.38;;
10134;SDS011;5107;48.850;8.924;2022-08-05T11:59:23;2.40;;;2.30;;
10134;SDS011;5107;48.850;8.924;2022-08-05T12:01:52;2.42;;;2.17;;
10134;SDS011;5107;48.850;8.924;2022-08-05T12:04:22;3.42;;;2.30;;
10134;SDS011;5107;48.850;8.924;2022-08-05T12:06:50;2.30;;;2.20;;
10134;SDS011;5107;48.850;8.924;2022-08-05T12:09:20;2.67;;;2.17;;
10134;SDS011;5107;48.850;8.924;2022-08-05T12:11:53;2.70;;;2.50;;
10134;SDS011;5107;48.850;8.924;2022-08-05T12:14:20;3.65;;;2.40;;
10134;SDS011;5107;48.850;8.924;2022-08-05T12:16:49;2.65;;;2.45;;
10134;SDS011;5107;48.850;8.924;2022-08-05T12:19:16;2.97;;;2.78;;
10134;SDS011;5107;48.850;8.924;2022-08-05T12:21:47;2.90;;;2.70;;
10134;SDS011;5107;48.850;8.924;2022-08-05T12:24:16;2.75;;;2.55;;
10134;SDS011;5107;48.850;8.924;2022-08-05T12:26:46;2.65;;;2.45;;
10134;SDS011;5107;48.850;8.924;2022-08-05T12:29:17;2.80;;;2.60;;
10134;SDS011;5107;48.850;8.924;2022-08-05T12:31:46;2.58;;;2.38;;
10134;SDS011;5107;48.850;8.924;2022-08-05T12:34:16;2.45;;;2.25;;
10134;SDS011;5107;48.850;8.924;2022-08-05T12:36:45;2.58;;;2.30;;
10134;SDS011;5107;48.850;8.924;2022-08-05T12:39:13;2.50;;;2.30;;
10134;SDS011;5107;48.850;8.924;2022-08-05T12:41:41;2.22;;;2.13;;
10134;SDS011;5107;48.850;8.924;2022-08-05T12:44:09;2.97;;;2.60;;
10134;SDS011;5107;48.850;8.924;2022-08-05T12:46:40;2.50;;;2.30;;
10134;SDS011;5107;48.850;8.924;2022-08-05T12:49:09;4.22;;;2.50;;
10134;SDS011;5107;48.850;8.924;2022-08-05T12:51:42;2.45;;;2.28;;
10134;SDS011;5107;48.850;8.924;2022-08-05T12:54:17;2.90;;;2.70;;
10134;SDS011;5107;48.850;8.924;2022-08-05T12:56:47;2.88;;;2.67;;
10134;SDS011;5107;48.850;8.924;2022-08-05T12:59:17;3.15;;;2.30;;
10134;SDS011;5107;48.850;8.924;2022-08-05T13:01:53;2.40;;;2.20;;
10134;SDS011;5107;48.850;8.924;2022-08-05T13:04:24;2.70;;;2.50;;
10134;SDS011;5107;48.850;8.924;2022-08-05T13:06:55;3.28;;;2.65;;
10134;SDS011;5107;48.850;8.924;2022-08-05T13:09:24;2.60;;;2.40;;
10134;SDS011;5107;48.850;8.924;2022-08-05T13:11:55;3.13;;;2.42;;
10134;SDS011;5107;48.850;8.924;2022-08-05T13:14:33;2.42;;;2.28;;
10134;SDS011;5107;48.850;8.924;2022-08-05T13:17:07;2.72;;;2.53;;
10134;SDS011;5107;48.850;8.924;2022-08-05T13:19:41;2.97;;;2.45;;
10134;SDS011;5107;48.850;8.924;2022-08-05T13:22:24;2.50;;;2.22;;
10134;SDS011;5107;48.850;8.924;2022-08-05T13:24:52;2.75;;;2.28;;
10134;SDS011;5107;48.850;8.924;2022-08-05T13:27:23;2.47;;;2.28;;
10134;SDS011;5107;48.850;8.924;2022-08-05T13:29:51;2.50;;;2.30;;
10134;SDS011;5107;48.850;8.924;2022-08-05T13:32:20;2.30;;;2.20;;
10134;SDS011;5107;48.850;8.924;2022-08-05T13:34:47;2.65;;;2.45;;
10134;SDS011;5107;48.850;8.924;2022-08-05T13:37:16;2.80;;;2.60;;
10134;SDS011;5107;48.850;8.924;2022-08-05T13:39:43;4.00;;;2.58;;
10134;SDS011;5107;48.850;8.924;2022-08-05T13:42:10;2.92;;;2.65;;
10134;SDS011;5107;48.850;8.924;2022-08-05T13:44:37;2.70;;;2.38;;
10134;SDS011;5107;48.850;8.924;2022-08-05T13:47:04;2.65;;;2.45;;
10134;SDS011;5107;48.850;8.924;2022-08-05T13:49:33;3.00;;;2.60;;
10134;SDS011;5107;48.850;8.924;2022-08-05T13:52:08;2.80;;;2.60;;
10134;SDS011;5107;48.850;8.924;2022-08-05T13:54:36;2.97;;;2.78;;
10134;SDS011;5107;48.850;8.924;2022-08-05T13:57:04;2.60;;;2.40;;
10134;SDS011;5107;48.850;8.924;2022-08-05T13:59:32;3.50;;;2.60;;
10134;SDS011;5107;48.850;8.924;2022-08-05T14:02:01;3.00;;;2.47;;
10134;SDS011;5107;48.850;8.924;2022-08-05T14:04:31;3.42;;;2.47;;
10134;SDS011;5107;48.850;8.924;2022-08-05T14:07:20;4.20;;;2.72;;
10134;SDS011;5107;48.850;8.924;2022-08-05T14:09:49;3.95;;;2.75;;
10134;SDS011;5107;48.850;8.924;2022-08-05T14:12:16;2.70;;;2.50;;
10134;SDS011;5107;48.850;8.924;2022-08-05T14:14:43;2.60;;;2.40;;
10134;SDS011;5107;48.850;8.924;2022-08-05T14:17:10;3.55;;;2.30;;
10134;SDS011;5107;48.850;8.924;2022-08-05T14:19:40;2.67;;;2.47;;
10134;SDS011;5107;48.850;8.924;2022-08-05T14:22:07;3.10;;;2.88;;
10134;SDS011;5107;48.850;8.924;2022-08-05T14:24:34;2.80;;;2.60;;
10134;SDS011;5107;48.850;8.924;2022-08-05T14:27:04;3.22;;;2.92;;
10134;SDS011;5107;48.850;8.924;2022-08-05T14:29:31;2.78;;;2.58;;
10134;SDS011;5107;48.850;8.924;2022-08-05T14:31:59;2.95;;;2.75;;
10134;SDS011;5107;48.850;8.924;2022-08-05T14:34:26;4.40;;;4.00;;
10134;SDS011;5107;48.850;8.924;2022-08-05T14:36:55;2.75;;;2.55;;
10134;SDS011;5107;48.850;8.924;2022-08-05T14:39:22;3.03;;;2.70;;
10134;SDS011;5107;48.850;8.924;2022-08-05T14:41:49;2.90;;;2.70;;
10134;SDS011;5107;48.850;8.924;2022-08-05T14:44:17;3.22;;;3.03;;
10134;SDS011;5107;48.850;8.924;2022-08-05T14:46:44;3.55;;;3.17;;
10134;SDS011;5107;48.850;8.924;2022-08-05T14:49:11;3.50;;;3.20;;
10134;SDS011;5107;48.850;8.924;2022-08-05T14:51:39;3.08;;;2.88;;
10134;SDS011;5107;48.850;8.924;2022-08-05T14:54:08;3.83;;;3.40;;
10134;SDS011;5107;48.850;8.924;2022-08-05T14:56:36;3.47;;;2.92;;
10134;SDS011;5107;48.850;8.924;2022-08-05T14:59:03;3.72;;;3.42;;
10134;SDS011;5107;48.850;8.924;2022-08-05T15:01:30;3.55;;;3.25;;
10134;SDS011;5107;48.850;8.924;2022-08-05T15:03:57;3.58;;;3.28;;
10134;SDS011;5107;48.850;8.924;2022-08-05T15:06:25;4.80;;;3.60;;
10134;SDS011;5107;48.850;8.924;2022-08-05T15:08:53;5.35;;;3.75;;
10134;SDS011;5107;48.850;8.924;2022-08-05T15:11:22;3.90;;;3.47;;
10134;SDS011;5107;48.850;8.924;2022-08-05T15:13:50;4.15;;;3.33;;
10134;SDS011;5107;48.850;8.924;2022-08-05T15:17:00;3.63;;;3.33;;
10134;SDS011;5107;48.850;8.924;2022-08-05T15:19:31;3.50;;;3.20;;
10134;SDS011;5107;48.850;8.924;2022-08-05T15:21:58;3.85;;;3.42;;
10134;SDS011;5107;48.850;8.924;2022-08-05T15:24:26;3.80;;;3.40;;
10134;SDS011;5107;48.850;8.924;2022-08-05T15:26:54;4.00;;;3.60;;